createdAt,value
2018-08-23T00:01:31.838Z,1.90
2018-08-23T00:04:05.116Z,1.80
2018-08-23T00:06:34.367Z,2.30
2018-08-23T00:09:04.682Z,1.90
2018-08-23T00:11:35.506Z,1.80
2018-08-23T00:14:04.599Z,1.80
2018-08-23T00:16:42.076Z,1.87
2018-08-23T00:19:11.226Z,1.97
2018-08-23T00:21:41.983Z,2.13
2018-08-23T00:24:13.957Z,2.10
2018-08-23T00:26:56.787Z,2.10
2018-08-23T00:29:26.912Z,1.63
2018-08-23T00:31:58.676Z,1.90
2018-08-23T00:34:30.224Z,2.43
2018-08-23T00:36:59.596Z,1.80
2018-08-23T00:39:29.341Z,2.10
2018-08-23T00:42:05.511Z,1.90
2018-08-23T00:44:56.308Z,1.97
2018-08-23T00:47:27.531Z,2.37
2018-08-23T00:49:56.706Z,1.80
2018-08-23T00:52:44.604Z,1.90
2018-08-23T00:55:23.590Z,2.60
2018-08-23T00:57:52.772Z,2.20
2018-08-23T01:00:23.173Z,2.13
2018-08-23T01:02:55.444Z,2.67
2018-08-23T01:05:29.813Z,1.73
2018-08-23T01:07:58.942Z,1.97
2018-08-23T01:10:28.069Z,2.20
2018-08-23T01:12:58.860Z,2.20
2018-08-23T01:15:28.465Z,2.03
2018-08-23T01:18:14.781Z,2.30
2018-08-23T01:20:44.573Z,2.03
2018-08-23T01:23:13.751Z,2.13
2018-08-23T01:25:44.044Z,2.70
2018-08-23T01:28:13.193Z,2.53
2018-08-23T01:30:42.723Z,2.13
2018-08-23T01:33:14.941Z,2.13
2018-08-23T01:35:45.310Z,2.63
2018-08-23T01:38:14.958Z,2.93
2018-08-23T01:40:44.222Z,2.50
2018-08-23T01:43:13.390Z,2.20
2018-08-23T01:45:42.576Z,2.50
2018-08-23T01:48:12.131Z,2.67
2018-08-23T01:50:41.258Z,2.40
2018-08-23T01:53:10.490Z,2.20
2018-08-23T01:55:39.740Z,1.87
2018-08-23T01:58:08.869Z,1.97
2018-08-23T02:00:38.024Z,2.93
2018-08-23T02:03:07.154Z,2.20
2018-08-23T02:05:37.920Z,2.50
2018-08-23T02:08:07.720Z,2.03
2018-08-23T02:10:36.818Z,2.23
2018-08-23T02:13:10.673Z,2.20
2018-08-23T02:15:44.851Z,2.33
2018-08-23T02:18:14.088Z,2.27
2018-08-23T02:20:43.254Z,2.17
2018-08-23T02:23:12.439Z,2.07
2018-08-23T02:25:41.579Z,2.40
2018-08-23T02:28:13.586Z,2.00
2018-08-23T02:30:55.149Z,2.40
2018-08-23T02:33:24.724Z,2.57
2018-08-23T02:36:22.366Z,3.00
2018-08-23T02:39:00.132Z,3.00
2018-08-23T02:41:29.494Z,2.47
2018-08-23T02:43:58.602Z,2.60
2018-08-23T02:46:27.741Z,2.30
2018-08-23T02:48:56.909Z,2.40
2018-08-23T02:51:40.512Z,2.20
2018-08-23T02:54:14.094Z,2.43
2018-08-23T02:56:51.228Z,2.40
2018-08-23T02:59:20.376Z,2.40
2018-08-23T03:01:50.416Z,1.93
2018-08-23T03:04:28.366Z,2.40
2018-08-23T03:07:00.068Z,2.73
2018-08-23T03:09:30.993Z,2.63
2018-08-23T03:12:01.338Z,2.70
2018-08-23T03:14:31.039Z,2.53
2018-08-23T03:17:27.301Z,2.77
2018-08-23T03:20:04.917Z,3.03
2018-08-23T03:22:34.783Z,2.77
2018-08-23T03:25:05.347Z,2.97
2018-08-23T03:27:34.616Z,2.87
2018-08-23T03:30:04.771Z,2.57
2018-08-23T03:32:33.952Z,2.00
2018-08-23T03:35:03.184Z,2.97
2018-08-23T03:37:32.352Z,2.90
2018-08-23T03:40:01.565Z,3.23
2018-08-23T03:42:30.692Z,2.80
2018-08-23T03:45:00.582Z,2.77
2018-08-23T03:47:38.316Z,2.83
2018-08-23T03:50:08.865Z,2.70
2018-08-23T03:52:41.177Z,2.07
2018-08-23T03:55:11.870Z,2.90
2018-08-23T03:57:46.272Z,2.13
2018-08-23T04:00:15.459Z,3.10
2018-08-23T04:02:44.537Z,3.40
2018-08-23T04:05:18.793Z,2.60
2018-08-23T04:07:47.942Z,2.83
2018-08-23T04:10:17.175Z,2.97
2018-08-23T04:12:46.308Z,2.87
2018-08-23T04:15:26.420Z,3.47
2018-08-23T04:17:55.567Z,2.60
2018-08-23T04:20:24.693Z,3.10
2018-08-23T04:22:53.828Z,2.70
2018-08-23T04:25:23.028Z,3.03
2018-08-23T04:27:52.159Z,3.00
2018-08-23T04:30:21.297Z,4.20
2018-08-23T04:32:50.499Z,3.47
2018-08-23T04:35:23.707Z,3.17
2018-08-23T04:37:52.972Z,3.53
2018-08-23T04:40:22.119Z,3.93
2018-08-23T04:42:51.259Z,3.97
2018-08-23T04:45:25.433Z,4.03
2018-08-23T04:48:02.964Z,4.23
2018-08-23T04:50:32.120Z,3.63
2018-08-23T04:53:01.246Z,3.57
2018-08-23T04:55:30.413Z,3.67
2018-08-23T04:58:00.235Z,4.10
2018-08-23T05:00:30.082Z,3.63
2018-08-23T05:02:59.563Z,4.43
2018-08-23T05:05:28.840Z,4.03
2018-08-23T05:07:58.001Z,4.60
2018-08-23T05:10:27.203Z,4.37
2018-08-23T05:12:56.342Z,3.80
2018-08-23T05:15:25.583Z,3.50
2018-08-23T05:17:54.750Z,3.87
2018-08-23T05:20:23.927Z,4.37
2018-08-23T05:23:02.228Z,4.53
2018-08-23T05:25:31.368Z,4.30
2018-08-23T05:28:17.658Z,4.53
2018-08-23T05:30:47.536Z,4.70
2018-08-23T05:33:21.021Z,4.97
2018-08-23T05:35:50.297Z,4.87
2018-08-23T05:38:20.226Z,5.30
2018-08-23T05:40:56.745Z,5.30
2018-08-23T05:43:25.917Z,5.90
2018-08-23T05:45:56.847Z,5.97
2018-08-23T05:48:32.288Z,5.60
2018-08-23T05:51:10.433Z,5.80
2018-08-23T05:53:45.571Z,5.70
2018-08-23T05:56:14.719Z,6.00
2018-08-23T05:58:43.900Z,7.37
2018-08-23T06:01:13.038Z,9.40
2018-08-23T06:03:42.216Z,7.33
2018-08-23T06:06:11.428Z,7.53
2018-08-23T06:08:44.372Z,5.30
2018-08-23T06:11:13.582Z,5.40
2018-08-23T06:13:42.779Z,6.10
2018-08-23T06:16:11.970Z,5.47
2018-08-23T06:18:41.117Z,5.40
2018-08-23T06:21:10.304Z,5.67
2018-08-23T06:23:59.564Z,5.97
2018-08-23T06:26:38.873Z,5.20
2018-08-23T06:29:08.773Z,5.97
2018-08-23T06:31:47.637Z,5.50
2018-08-23T06:34:16.819Z,5.40
2018-08-23T06:36:46.857Z,5.87
2018-08-23T06:39:16.015Z,6.50
2018-08-23T06:41:45.155Z,6.20
2018-08-23T06:44:14.345Z,7.23
2018-08-23T06:46:43.485Z,6.70
2018-08-23T06:49:12.677Z,5.77
2018-08-23T06:51:41.831Z,6.73
2018-08-23T06:54:10.997Z,6.60
2018-08-23T06:56:40.128Z,7.07
2018-08-23T06:59:10.229Z,6.63
2018-08-23T07:01:44.778Z,7.97
2018-08-23T07:04:15.272Z,7.70
2018-08-23T07:06:44.449Z,7.97
2018-08-23T07:09:15.444Z,7.93
2018-08-23T07:11:44.762Z,7.30
2018-08-23T07:14:15.991Z,7.67
2018-08-23T07:16:46.410Z,7.60
2018-08-23T07:19:30.232Z,7.57
2018-08-23T07:22:01.857Z,6.57
2018-08-23T07:24:45.737Z,7.53
2018-08-23T07:27:16.405Z,6.03
2018-08-23T07:29:48.375Z,6.80
2018-08-23T07:32:18.559Z,6.00
2018-08-23T07:34:54.275Z,6.53
2018-08-23T07:37:23.398Z,6.63
2018-08-23T07:39:58.072Z,6.50
2018-08-23T07:42:30.607Z,6.10
2018-08-23T07:45:00.301Z,6.60
2018-08-23T07:47:30.013Z,5.60
2018-08-23T07:50:00.255Z,6.73
2018-08-23T07:52:31.376Z,5.70
2018-08-23T07:55:02.687Z,6.00
2018-08-23T07:57:33.083Z,4.60
2018-08-23T08:00:04.027Z,5.60
2018-08-23T08:02:33.152Z,4.90
2018-08-23T08:05:02.358Z,5.10
2018-08-23T08:07:32.514Z,5.50
2018-08-23T08:10:02.780Z,5.33
2018-08-23T08:12:38.795Z,4.00
2018-08-23T08:15:10.932Z,4.07
2018-08-23T08:17:40.063Z,4.97
2018-08-23T08:20:10.847Z,4.03
2018-08-23T08:22:39.979Z,4.47
2018-08-23T08:25:15.609Z,4.37
2018-08-23T08:27:44.748Z,3.70
2018-08-23T08:30:15.224Z,4.00
2018-08-23T08:32:44.750Z,4.27
2018-08-23T08:35:15.459Z,3.43
2018-08-23T08:37:46.283Z,3.70
2018-08-23T08:40:29.937Z,3.80
2018-08-23T08:42:59.125Z,3.80
2018-08-23T08:45:28.503Z,4.13
2018-08-23T08:48:14.317Z,3.30
2018-08-23T08:50:48.852Z,3.40
2018-08-23T08:53:18.013Z,3.83
2018-08-23T08:55:47.194Z,3.97
2018-08-23T08:58:16.339Z,3.83
2018-08-23T09:00:51.981Z,3.60
2018-08-23T09:03:22.700Z,3.63
2018-08-23T09:05:51.869Z,3.20
2018-08-23T09:08:21.008Z,4.13
2018-08-23T09:10:50.206Z,3.70
2018-08-23T09:13:20.259Z,3.43
2018-08-23T09:15:50.397Z,3.40
2018-08-23T09:18:24.756Z,3.63
2018-08-23T09:20:55.741Z,3.30
2018-08-23T09:23:25.420Z,4.03
2018-08-23T09:25:58.417Z,3.30
2018-08-23T09:28:31.310Z,2.60
2018-08-23T09:31:05.050Z,2.17
2018-08-23T09:33:39.885Z,2.47
2018-08-23T09:36:09.021Z,2.10
2018-08-23T09:38:44.262Z,2.10
2018-08-23T09:41:13.405Z,1.40
2018-08-23T09:43:45.420Z,1.77
2018-08-23T09:46:17.885Z,1.73
2018-08-23T09:48:50.981Z,2.03
2018-08-23T09:51:25.442Z,1.47
2018-08-23T09:54:02.139Z,1.80
2018-08-23T09:56:36.433Z,1.90
2018-08-23T09:59:09.938Z,2.13
2018-08-23T10:01:48.364Z,1.80
2018-08-23T10:04:30.840Z,1.97
2018-08-23T10:07:12.770Z,2.00
2018-08-23T10:09:48.880Z,2.23
2018-08-23T10:12:27.642Z,1.83
2018-08-23T10:15:07.011Z,2.30
2018-08-23T10:17:46.147Z,2.00
2018-08-23T10:20:20.644Z,2.10
2018-08-23T10:23:00.711Z,1.90
2018-08-23T10:25:44.861Z,1.57
2018-08-23T10:28:15.166Z,1.57
2018-08-23T10:30:44.572Z,1.87
2018-08-23T10:33:13.746Z,2.10
2018-08-23T10:35:47.607Z,2.07
2018-08-23T10:38:18.603Z,2.30
2018-08-23T10:40:48.836Z,1.83
2018-08-23T10:43:22.035Z,1.60
2018-08-23T10:45:51.147Z,1.50
2018-08-23T10:48:20.540Z,1.40
2018-08-23T10:50:50.458Z,1.40
2018-08-23T10:53:19.994Z,1.57
2018-08-23T10:55:49.115Z,1.83
2018-08-23T10:58:18.228Z,2.00
2018-08-23T11:00:47.347Z,1.30
2018-08-23T11:03:16.481Z,2.40
2018-08-23T11:05:45.940Z,1.40
2018-08-23T11:08:21.738Z,1.77
2018-08-23T11:11:53.912Z,1.73
2018-08-23T11:14:28.368Z,2.03
2018-08-23T11:17:02.789Z,1.80
2018-08-23T11:19:37.163Z,2.30
2018-08-23T11:22:06.292Z,2.60
2018-08-23T11:24:35.444Z,3.27
2018-08-23T11:27:04.615Z,2.93
2018-08-23T11:29:33.820Z,3.03
2018-08-23T11:32:03.066Z,4.03
2018-08-23T11:34:32.221Z,3.60
2018-08-23T11:37:01.349Z,3.37
2018-08-23T11:39:30.540Z,3.40
2018-08-23T11:41:59.712Z,3.67
2018-08-23T11:44:28.913Z,3.60
2018-08-23T11:46:58.116Z,4.00
2018-08-23T11:49:27.326Z,3.93
2018-08-23T11:51:56.553Z,3.60
2018-08-23T11:54:25.826Z,3.60
2018-08-23T11:56:55.012Z,3.90
2018-08-23T11:59:24.194Z,3.90
2018-08-23T12:01:53.324Z,3.30
2018-08-23T12:04:22.457Z,3.27
2018-08-23T12:06:55.749Z,3.77
2018-08-23T12:09:30.254Z,3.87
2018-08-23T12:11:59.768Z,3.10
2018-08-23T12:14:28.974Z,3.80
2018-08-23T12:16:58.184Z,3.90
2018-08-23T12:19:27.340Z,3.30
2018-08-23T12:21:56.464Z,3.70
2018-08-23T12:24:25.600Z,3.80
2018-08-23T12:26:54.805Z,3.90
2018-08-23T12:29:23.920Z,3.43
2018-08-23T12:31:55.276Z,3.07
2018-08-23T12:34:35.744Z,3.60
2018-08-23T12:37:10.353Z,3.80
2018-08-23T12:39:45.040Z,4.50
2018-08-23T12:42:19.598Z,3.47
2018-08-23T12:44:52.701Z,3.70
2018-08-23T12:47:21.990Z,3.37
2018-08-23T12:49:51.275Z,3.20
2018-08-23T12:52:20.453Z,4.00
2018-08-23T12:54:49.589Z,3.40
2018-08-23T12:57:18.765Z,3.00
2018-08-23T12:59:47.863Z,4.03
2018-08-23T13:02:17.146Z,3.70
2018-08-23T13:04:46.257Z,4.33
2018-08-23T13:07:15.456Z,3.77
2018-08-23T13:09:44.909Z,3.80
2018-08-23T13:12:14.203Z,3.70
2018-08-23T13:14:43.381Z,4.20
2018-08-23T13:17:12.835Z,3.50
2018-08-23T13:19:42.061Z,3.90
2018-08-23T13:22:11.169Z,4.30
2018-08-23T13:24:45.647Z,4.00
2018-08-23T13:27:14.798Z,3.67
2018-08-23T13:29:44.020Z,3.50
2018-08-23T13:32:13.246Z,4.43
2018-08-23T13:34:42.341Z,4.10
2018-08-23T13:37:11.488Z,3.43
2018-08-23T13:39:40.642Z,4.00
2018-08-23T13:42:09.760Z,3.60
2018-08-23T13:44:38.858Z,4.23
2018-08-23T13:47:08.015Z,3.80
2018-08-23T13:49:37.189Z,4.43
2018-08-23T13:52:06.358Z,4.30
2018-08-23T13:54:35.627Z,3.90
2018-08-23T13:57:05.909Z,3.37
2018-08-23T13:59:35.228Z,3.90
2018-08-23T14:02:04.491Z,4.10
2018-08-23T14:04:33.650Z,4.30
2018-08-23T14:07:02.823Z,4.20
2018-08-23T14:09:32.013Z,3.50
2018-08-23T14:12:01.222Z,3.50
2018-08-23T14:14:31.061Z,3.73
2018-08-23T14:17:00.538Z,4.37
2018-08-23T14:19:29.795Z,4.00
2018-08-23T14:21:58.967Z,3.90
2018-08-23T14:24:28.245Z,3.90
2018-08-23T14:26:57.385Z,3.70
2018-08-23T14:29:26.501Z,4.20
2018-08-23T14:31:55.719Z,3.70
2018-08-23T14:34:24.983Z,4.23
2018-08-23T14:36:54.166Z,4.63
2018-08-23T14:39:23.331Z,3.80
2018-08-23T14:41:52.483Z,4.00
2018-08-23T14:44:21.628Z,4.77
2018-08-23T14:46:56.262Z,4.70
2018-08-23T14:49:30.702Z,4.37
2018-08-23T14:51:59.892Z,4.40
2018-08-23T14:54:34.291Z,4.70
2018-08-23T14:57:08.672Z,4.07
2018-08-23T14:59:37.869Z,4.20
2018-08-23T15:02:07.661Z,4.30
2018-08-23T15:04:36.985Z,5.00
2018-08-23T15:07:06.525Z,4.80
2018-08-23T15:09:35.766Z,4.60
2018-08-23T15:12:04.870Z,4.83
2018-08-23T15:14:34.059Z,4.50
2018-08-23T15:17:03.223Z,4.83
2018-08-23T15:19:32.385Z,5.17
2018-08-23T15:22:01.654Z,5.40
2018-08-23T15:24:30.792Z,5.43
2018-08-23T15:27:00.090Z,5.37
2018-08-23T15:29:29.189Z,4.97
2018-08-23T15:31:58.366Z,4.77
2018-08-23T15:34:27.519Z,5.43
2018-08-23T15:36:56.645Z,5.10
2018-08-23T15:39:25.834Z,5.37
2018-08-23T15:41:54.959Z,4.53
2018-08-23T15:44:24.154Z,5.40
2018-08-23T15:46:53.291Z,5.13
2018-08-23T15:49:22.466Z,5.50
2018-08-23T15:51:51.628Z,4.90
2018-08-23T15:54:20.833Z,4.90
2018-08-23T15:56:50.028Z,5.40
2018-08-23T15:59:19.245Z,6.20
2018-08-23T16:01:48.426Z,5.80
2018-08-23T16:04:17.586Z,5.17
2018-08-23T16:06:46.764Z,5.00
2018-08-23T16:09:15.916Z,5.60
2018-08-23T16:11:45.048Z,5.60
2018-08-23T16:14:14.191Z,5.03
2018-08-23T16:16:48.522Z,5.90
2018-08-23T16:19:22.906Z,4.60
2018-08-23T16:21:56.034Z,4.97
2018-08-23T16:24:25.981Z,5.20
2018-08-23T16:27:00.512Z,5.77
2018-08-23T16:29:29.901Z,5.90
2018-08-23T16:31:58.996Z,5.40
2018-08-23T16:34:28.360Z,5.13
2018-08-23T16:36:57.498Z,5.30
2018-08-23T16:39:26.620Z,6.63
2018-08-23T16:41:55.780Z,5.77
2018-08-23T16:44:24.903Z,4.83
2018-08-23T16:46:54.023Z,5.70
2018-08-23T16:49:23.141Z,5.40
2018-08-23T16:51:52.310Z,5.47
2018-08-23T16:54:21.414Z,4.90
2018-08-23T16:56:50.540Z,4.20
2018-08-23T16:59:19.643Z,3.80
2018-08-23T17:01:49.618Z,4.20
2018-08-23T17:04:18.761Z,5.17
2018-08-23T17:06:47.891Z,3.90
2018-08-23T17:09:17.054Z,5.40
2018-08-23T17:11:46.145Z,5.20
2018-08-23T17:14:15.911Z,5.43
2018-08-23T17:16:50.508Z,5.30
2018-08-23T17:19:19.677Z,5.20
2018-08-23T17:21:48.755Z,5.67
2018-08-23T17:24:17.957Z,5.00
2018-08-23T17:26:47.126Z,6.17
2018-08-23T17:29:16.301Z,6.27
2018-08-23T17:31:45.411Z,6.90
2018-08-23T17:34:14.567Z,6.13
2018-08-23T17:36:43.703Z,6.40
2018-08-23T17:39:12.844Z,6.57
2018-08-23T17:41:41.985Z,5.53
2018-08-23T17:44:11.121Z,5.20
2018-08-23T17:46:40.281Z,4.97
2018-08-23T17:49:09.420Z,5.60
2018-08-23T17:51:38.753Z,6.00
2018-08-23T17:54:07.900Z,6.13
2018-08-23T17:56:37.104Z,5.70
2018-08-23T17:59:06.229Z,6.00
2018-08-23T18:01:35.383Z,5.40
2018-08-23T18:04:04.496Z,5.63
2018-08-23T18:06:33.713Z,5.40
2018-08-23T18:09:02.876Z,6.73
2018-08-23T18:11:32.076Z,6.60
2018-08-23T18:14:01.244Z,5.50
2018-08-23T18:16:35.529Z,5.30
2018-08-23T18:19:04.675Z,5.30
2018-08-23T18:21:33.778Z,5.90
2018-08-23T18:24:02.883Z,5.40
2018-08-23T18:26:31.981Z,5.53
2018-08-23T18:29:01.122Z,5.77
2018-08-23T18:31:37.035Z,6.10
2018-08-23T18:34:06.238Z,6.77
2018-08-23T18:36:35.358Z,7.80
2018-08-23T18:39:06.650Z,6.70
2018-08-23T18:41:35.842Z,6.20
2018-08-23T18:44:04.968Z,6.70
2018-08-23T18:46:34.159Z,6.43
2018-08-23T18:49:03.544Z,6.13
2018-08-23T18:51:32.959Z,6.63
2018-08-23T18:54:02.163Z,6.77
2018-08-23T18:56:31.400Z,6.87
2018-08-23T18:59:00.608Z,6.67
2018-08-23T19:01:29.786Z,7.70
2018-08-23T19:03:59.031Z,8.33
2018-08-23T19:06:33.543Z,8.57
2018-08-23T19:09:03.301Z,8.70
2018-08-23T19:11:32.451Z,8.97
2018-08-23T19:14:01.552Z,9.67
2018-08-23T19:16:35.887Z,9.83
2018-08-23T19:19:05.234Z,11.90
2018-08-23T19:21:34.270Z,11.13
2018-08-23T19:24:03.360Z,11.60
2018-08-23T19:26:32.521Z,12.20
2018-08-23T19:29:01.680Z,12.77
2018-08-23T19:31:30.999Z,11.53
2018-08-23T19:34:00.004Z,12.53
2018-08-23T19:36:29.192Z,13.43
2018-08-23T19:38:58.322Z,13.23
2018-08-23T19:41:27.434Z,12.70
2018-08-23T19:43:56.671Z,11.57
2018-08-23T19:46:31.259Z,12.07
2018-08-23T19:49:05.808Z,12.40
2018-08-23T19:51:34.921Z,11.90
2018-08-23T19:54:04.107Z,11.50
2018-08-23T19:56:33.299Z,11.97
2018-08-23T19:59:02.473Z,12.27
2018-08-23T20:01:31.841Z,11.00
2018-08-23T20:04:00.957Z,11.03
2018-08-23T20:06:30.203Z,11.13
2018-08-23T20:08:59.316Z,11.67
2018-08-23T20:11:28.453Z,11.80
2018-08-23T20:13:57.555Z,11.23
2018-08-23T20:16:26.707Z,13.27
2018-08-23T20:18:55.846Z,12.93
2018-08-23T20:21:24.998Z,12.60
2018-08-23T20:23:54.129Z,12.40
2018-08-23T20:26:23.331Z,14.67
2018-08-23T20:28:52.484Z,13.23
2018-08-23T20:31:21.574Z,13.40
2018-08-23T20:33:50.719Z,14.00
2018-08-23T20:36:19.803Z,14.33
2018-08-23T20:38:48.969Z,16.00
2018-08-23T20:41:18.140Z,13.60
2018-08-23T20:43:47.358Z,13.83
2018-08-23T20:46:16.543Z,15.27
2018-08-23T20:48:45.735Z,15.47
2018-08-23T20:51:14.844Z,16.33
2018-08-23T20:53:43.989Z,15.17
2018-08-23T20:56:13.107Z,17.30
2018-08-23T20:58:42.268Z,14.80
2018-08-23T21:01:11.396Z,16.27
2018-08-23T21:03:40.536Z,16.10
2018-08-23T21:06:09.695Z,16.90
2018-08-23T21:08:38.870Z,17.77
2018-08-23T21:11:08.042Z,17.93
2018-08-23T21:13:37.262Z,17.37
2018-08-23T21:16:06.399Z,17.40
2018-08-23T21:18:35.545Z,16.00
2018-08-23T21:21:04.692Z,15.27
2018-08-23T21:23:33.891Z,15.47
2018-08-23T21:26:03.090Z,16.17
2018-08-23T21:28:32.254Z,17.37
2018-08-23T21:31:01.518Z,17.93
2018-08-23T21:33:30.638Z,20.33
2018-08-23T21:36:00.079Z,23.27
2018-08-23T21:38:29.280Z,19.83
2018-08-23T21:40:58.436Z,21.53
2018-08-23T21:43:27.531Z,19.83
2018-08-23T21:45:56.651Z,20.70
2018-08-23T21:48:25.852Z,21.27
2018-08-23T21:50:55.021Z,23.77
2018-08-23T21:53:24.131Z,21.57
2018-08-23T21:55:53.325Z,22.73
2018-08-23T21:58:22.557Z,24.43
2018-08-23T22:00:54.712Z,22.33
2018-08-23T22:03:24.272Z,23.00
2018-08-23T22:05:53.473Z,21.90
2018-08-23T22:08:22.657Z,24.50
2018-08-23T22:10:51.790Z,23.87
2018-08-23T22:13:20.925Z,22.93
2018-08-23T22:15:50.373Z,20.43
2018-08-23T22:18:20.049Z,22.57
2018-08-23T22:20:49.223Z,24.47
2018-08-23T22:23:18.378Z,23.30
2018-08-23T22:25:47.544Z,26.10
2018-08-23T22:28:16.746Z,25.00
2018-08-23T22:30:45.917Z,25.37
2018-08-23T22:33:15.110Z,25.70
2018-08-23T22:35:44.306Z,25.77
2018-08-23T22:38:13.531Z,25.80
2018-08-23T22:40:42.745Z,28.50
2018-08-23T22:43:12.084Z,25.93
2018-08-23T22:45:41.242Z,26.90
2018-08-23T22:48:10.510Z,28.30
2018-08-23T22:50:39.683Z,26.20
2018-08-23T22:53:08.849Z,24.63
2018-08-23T22:55:38.066Z,25.83
2018-08-23T22:58:07.258Z,25.17
2018-08-23T23:00:40.751Z,25.53
2018-08-23T23:03:15.195Z,25.70
2018-08-23T23:05:44.866Z,27.13
2018-08-23T23:08:14.097Z,27.20
2018-08-23T23:10:43.335Z,28.17
2018-08-23T23:13:12.568Z,28.63
2018-08-23T23:15:41.749Z,29.10
2018-08-23T23:18:10.940Z,29.87
2018-08-23T23:20:40.077Z,30.40
2018-08-23T23:23:09.206Z,28.77
2018-08-23T23:25:38.413Z,29.90
2018-08-23T23:28:07.585Z,30.03
2018-08-23T23:30:36.746Z,34.67
2018-08-23T23:33:05.883Z,35.73
2018-08-23T23:35:35.075Z,34.43
2018-08-23T23:38:04.260Z,36.23
2018-08-23T23:40:33.400Z,32.63
2018-08-23T23:43:02.535Z,32.40
2018-08-23T23:45:31.744Z,35.87
2018-08-23T23:48:00.892Z,38.03
2018-08-23T23:50:30.044Z,36.63
2018-08-23T23:52:59.151Z,34.93
2018-08-23T23:55:28.283Z,36.23
2018-08-23T23:57:57.449Z,38.67
